createdAt,value
2023-02-05T00:00:52.209Z,99.90
2023-02-05T00:01:54.769Z,99.90
2023-02-05T00:02:59.958Z,99.90
2023-02-05T00:04:02.965Z,99.90
2023-02-05T00:05:11.826Z,99.90
2023-02-05T00:06:21.485Z,99.90
2023-02-05T00:07:25.464Z,99.90
2023-02-05T00:08:30.399Z,99.90
2023-02-05T00:09:34.811Z,99.90
2023-02-05T00:10:37.527Z,99.90
2023-02-05T00:11:41.280Z,99.90
2023-02-05T00:12:44.520Z,99.90
2023-02-05T00:13:48.069Z,99.90
2023-02-05T00:14:50.557Z,99.90
2023-02-05T00:15:56.608Z,99.90
2023-02-05T00:17:01.498Z,99.90
2023-02-05T00:18:07.114Z,99.90
2023-02-05T00:19:09.999Z,99.90
2023-02-05T00:20:13.937Z,99.90
2023-02-05T00:21:18.525Z,99.90
2023-02-05T00:22:22.264Z,99.90
2023-02-05T00:23:24.897Z,99.80
2023-02-05T00:24:28.502Z,99.90
2023-02-05T00:25:31.459Z,99.90
2023-02-05T00:26:38.966Z,99.90
2023-02-05T00:27:41.737Z,99.70
2023-02-05T00:28:45.856Z,99.70
2023-02-05T00:29:48.409Z,99.70
2023-02-05T00:30:52.592Z,99.90
2023-02-05T00:31:55.384Z,99.90
2023-02-05T00:32:58.958Z,99.90
2023-02-05T00:34:07.754Z,99.90
2023-02-05T00:35:16.125Z,99.90
2023-02-05T00:36:27.474Z,99.90
2023-02-05T00:37:32.872Z,99.90
2023-02-05T00:38:36.331Z,99.90
2023-02-05T00:39:39.950Z,99.90
2023-02-05T00:40:43.148Z,99.80
2023-02-05T00:41:46.899Z,99.80
2023-02-05T00:42:54.146Z,99.70
2023-02-05T00:44:02.037Z,99.20
2023-02-05T00:45:08.204Z,99.30
2023-02-05T00:46:13.878Z,99.30
2023-02-05T00:47:18.543Z,99.30
2023-02-05T00:48:22.821Z,99.40
2023-02-05T00:49:26.837Z,99.30
2023-02-05T00:50:30.505Z,99.30
2023-02-05T00:51:33.204Z,99.30
2023-02-05T00:52:36.759Z,99.10
2023-02-05T00:53:39.530Z,99.00
2023-02-05T00:54:43.293Z,99.10
2023-02-05T00:55:50.256Z,99.30
2023-02-05T00:56:54.011Z,99.40
2023-02-05T00:57:56.894Z,99.20
2023-02-05T00:59:05.531Z,99.20
2023-02-05T01:00:09.841Z,99.50
2023-02-05T01:01:14.389Z,98.90
2023-02-05T01:02:17.557Z,99.00
2023-02-05T01:03:22.212Z,99.00
2023-02-05T01:04:33.921Z,99.00
2023-02-05T01:05:40.492Z,99.10
2023-02-05T01:06:43.150Z,98.90
2023-02-05T01:07:47.374Z,98.80
2023-02-05T01:08:49.953Z,99.00
2023-02-05T01:09:53.855Z,98.70
2023-02-05T01:10:59.170Z,98.80
2023-02-05T01:12:02.932Z,99.10
2023-02-05T01:13:06.221Z,99.10
2023-02-05T01:14:09.903Z,99.60
2023-02-05T01:15:17.802Z,99.40
2023-02-05T01:16:21.457Z,99.20
2023-02-05T01:17:24.190Z,99.10
2023-02-05T01:18:31.978Z,98.60
2023-02-05T01:19:37.487Z,98.60
2023-02-05T01:20:41.711Z,98.60
2023-02-05T01:21:45.617Z,98.80
2023-02-05T01:22:48.445Z,98.40
2023-02-05T01:23:52.676Z,98.30
2023-02-05T01:24:55.973Z,98.40
2023-02-05T01:26:00.093Z,98.80
2023-02-05T01:27:02.561Z,98.90
2023-02-05T01:28:06.892Z,98.60
2023-02-05T01:29:09.854Z,98.90
2023-02-05T01:30:21.466Z,99.00
2023-02-05T01:31:28.526Z,99.20
2023-02-05T01:32:33.263Z,99.00
2023-02-05T01:33:36.151Z,99.60
2023-02-05T01:34:43.596Z,99.10
2023-02-05T01:35:46.615Z,99.10
2023-02-05T01:36:55.826Z,99.20
2023-02-05T01:37:58.502Z,98.70
2023-02-05T01:39:01.881Z,98.40
2023-02-05T01:40:06.035Z,98.60
2023-02-05T01:41:10.216Z,98.60
2023-02-05T01:42:19.477Z,98.60
2023-02-05T01:43:23.149Z,98.80
2023-02-05T01:44:25.906Z,98.90
2023-02-05T01:45:56.589Z,99.20
2023-02-05T01:46:59.120Z,98.20
2023-02-05T01:48:06.140Z,98.50
2023-02-05T01:49:14.984Z,98.50
2023-02-05T01:50:25.492Z,98.40
2023-02-05T01:51:32.910Z,98.50
2023-02-05T01:52:35.687Z,98.50
2023-02-05T01:53:49.251Z,98.60
2023-02-05T01:54:54.248Z,98.40
2023-02-05T01:56:01.692Z,98.10
2023-02-05T01:57:07.941Z,98.40
2023-02-05T01:58:12.948Z,98.60
2023-02-05T01:59:22.014Z,98.70
2023-02-05T02:00:24.965Z,98.60
2023-02-05T02:01:29.851Z,98.50
2023-02-05T02:02:34.744Z,98.70
2023-02-05T02:03:40.644Z,98.70
2023-02-05T02:04:55.348Z,99.20
2023-02-05T02:05:59.707Z,98.50
2023-02-05T02:07:05.496Z,98.60
2023-02-05T02:08:09.956Z,98.30
2023-02-05T02:09:14.014Z,98.60
2023-02-05T02:10:19.349Z,97.90
2023-02-05T02:11:29.274Z,98.10
2023-02-05T02:12:37.058Z,98.00
2023-02-05T02:13:42.978Z,98.30
2023-02-05T02:14:52.001Z,98.40
2023-02-05T02:15:57.032Z,98.10
2023-02-05T02:17:06.466Z,98.30
2023-02-05T02:18:29.054Z,98.10
2023-02-05T02:19:42.356Z,98.20
2023-02-05T02:20:49.163Z,98.20
2023-02-05T02:22:23.292Z,98.20
2023-02-05T02:23:38.840Z,98.10
2023-02-05T02:25:02.892Z,98.20
2023-02-05T02:26:26.780Z,98.10
2023-02-05T02:27:51.171Z,98.10
2023-02-05T02:29:02.540Z,98.10
2023-02-05T02:30:15.431Z,98.40
2023-02-05T02:31:28.405Z,98.60
2023-02-05T02:32:42.093Z,98.30
2023-02-05T02:33:56.929Z,98.10
2023-02-05T02:35:16.764Z,98.40
2023-02-05T02:36:30.482Z,98.90
2023-02-05T02:37:39.817Z,98.40
2023-02-05T02:38:52.511Z,98.50
2023-02-05T02:40:02.316Z,98.60
2023-02-05T02:41:20.191Z,98.60
2023-02-05T02:42:34.350Z,98.50
2023-02-05T02:43:50.340Z,98.60
2023-02-05T03:33:03.463Z,97.70
2023-02-05T03:34:23.945Z,98.00
2023-02-05T03:35:42.755Z,98.00
2023-02-05T03:37:00.688Z,98.20
2023-02-05T03:38:22.866Z,98.40
2023-02-05T03:39:37.335Z,98.50
2023-02-05T03:40:50.648Z,98.60
2023-02-05T03:42:07.385Z,98.20
2023-02-05T03:43:30.660Z,97.90
2023-02-05T03:45:02.716Z,98.60
2023-02-05T03:46:19.719Z,98.50
2023-02-05T03:47:36.134Z,98.50
2023-02-05T03:48:56.419Z,98.10
2023-02-05T03:50:09.405Z,98.20
2023-02-05T03:51:32.980Z,98.50
2023-02-05T03:52:42.747Z,98.60
2023-02-05T03:53:57.257Z,98.80
2023-02-05T03:55:12.595Z,98.70
2023-02-05T03:56:25.396Z,98.30
2023-02-05T03:57:38.753Z,98.50
2023-02-05T03:58:47.227Z,98.80
2023-02-05T03:59:56.663Z,99.00
2023-02-05T04:01:01.130Z,99.00
2023-02-05T04:02:04.972Z,98.90
2023-02-05T04:03:14.368Z,98.30
2023-02-05T04:04:19.355Z,98.70
2023-02-05T04:05:23.215Z,98.90
2023-02-05T04:06:28.438Z,99.10
2023-02-05T04:07:32.797Z,99.10
2023-02-05T04:08:35.755Z,99.40
2023-02-05T04:09:39.930Z,99.10
2023-02-05T04:10:43.515Z,98.90
2023-02-05T04:11:47.406Z,98.70
2023-02-05T04:12:51.526Z,98.80
2023-02-05T04:13:56.148Z,98.90
2023-02-05T04:14:59.198Z,98.90
2023-02-05T04:16:03.086Z,98.70
2023-02-05T04:17:09.877Z,98.60
2023-02-05T04:18:13.501Z,98.80
2023-02-05T04:19:15.914Z,98.40
2023-02-05T04:20:21.208Z,98.20
2023-02-05T04:21:25.623Z,98.30
2023-02-05T04:22:28.354Z,98.20
2023-02-05T04:23:34.198Z,98.50
2023-02-05T04:24:37.056Z,98.50
2023-02-05T04:25:42.618Z,98.70
2023-02-05T04:26:47.967Z,98.70
2023-02-05T04:27:52.021Z,98.10
2023-02-05T04:28:55.233Z,98.30
2023-02-05T04:29:58.915Z,98.50
2023-02-05T04:31:01.828Z,98.70
2023-02-05T04:32:07.167Z,98.80
2023-02-05T04:33:10.666Z,98.20
2023-02-05T04:34:16.098Z,98.00
2023-02-05T04:35:19.871Z,98.40
2023-02-05T04:36:24.956Z,98.00
2023-02-05T04:37:27.863Z,98.60
2023-02-05T04:38:31.416Z,99.00
2023-02-05T04:39:33.994Z,99.10
2023-02-05T04:40:37.500Z,98.90
2023-02-05T04:41:40.146Z,98.50
2023-02-05T04:42:45.411Z,98.60
2023-02-05T04:43:47.849Z,98.40
2023-02-05T04:44:53.060Z,98.30
2023-02-05T04:45:55.801Z,98.70
2023-02-05T04:46:59.707Z,98.50
2023-02-05T04:48:02.542Z,98.50
2023-02-05T04:49:05.869Z,98.60
2023-02-05T04:50:08.812Z,98.80
2023-02-05T04:51:16.254Z,98.70
2023-02-05T04:52:18.791Z,98.60
2023-02-05T04:53:22.653Z,98.30
2023-02-05T04:54:25.577Z,98.40
2023-02-05T04:55:29.167Z,98.50
2023-02-05T04:56:31.964Z,98.60
2023-02-05T04:57:35.367Z,98.70
2023-02-05T04:58:37.898Z,98.40
2023-02-05T04:59:44.550Z,98.00
2023-02-05T05:00:47.378Z,98.00
2023-02-05T05:01:51.197Z,98.00
2023-02-05T05:02:54.862Z,98.20
2023-02-05T05:03:59.082Z,98.40
2023-02-05T05:05:01.878Z,98.70
2023-02-05T05:06:06.894Z,98.80
2023-02-05T05:07:10.988Z,99.00
2023-02-05T05:08:14.918Z,98.90
2023-02-05T05:09:17.438Z,98.40
2023-02-05T05:10:21.412Z,98.30
2023-02-05T05:11:24.407Z,98.40
2023-02-05T05:12:28.205Z,98.70
2023-02-05T05:13:32.429Z,98.80
2023-02-05T05:14:37.764Z,98.80
2023-02-05T05:15:40.779Z,98.90
2023-02-05T05:16:49.066Z,98.90
2023-02-05T05:17:57.238Z,98.80
2023-02-05T05:19:00.314Z,98.80
2023-02-05T05:20:04.962Z,98.60
2023-02-05T05:21:07.950Z,98.70
2023-02-05T05:22:12.749Z,98.50
2023-02-05T05:23:15.332Z,98.30
2023-02-05T05:24:19.239Z,98.60
2023-02-05T05:25:22.006Z,98.50
2023-02-05T05:26:25.373Z,98.70
2023-02-05T05:27:28.004Z,98.70
2023-02-05T05:28:33.913Z,98.80
2023-02-05T05:29:38.189Z,98.70
2023-02-05T05:30:44.679Z,98.60
2023-02-05T05:31:48.218Z,98.80
2023-02-05T05:32:50.978Z,98.70
2023-02-05T05:33:54.839Z,98.90
2023-02-05T05:35:02.082Z,98.80
2023-02-05T05:36:06.325Z,98.70
2023-02-05T05:37:08.660Z,98.80
2023-02-05T05:38:13.809Z,98.70
2023-02-05T05:39:34.970Z,98.70
2023-02-05T05:40:55.889Z,98.70
2023-02-05T05:42:16.890Z,98.60
2023-02-05T05:43:40.055Z,98.50
2023-02-05T05:44:43.656Z,98.50
2023-02-05T05:45:46.681Z,98.70
2023-02-05T05:46:50.033Z,98.50
2023-02-05T05:47:52.706Z,98.40
2023-02-05T05:48:58.597Z,98.30
2023-02-05T05:50:00.976Z,98.40
2023-02-05T05:51:16.144Z,98.50
2023-02-05T05:52:19.101Z,98.80
2023-02-05T05:53:24.377Z,98.80
2023-02-05T05:54:27.031Z,99.30
2023-02-05T05:55:31.888Z,98.90
2023-02-05T05:56:35.851Z,98.80
2023-02-05T05:57:39.546Z,98.60
2023-02-05T05:58:42.835Z,98.60
2023-02-05T05:59:46.376Z,98.60
2023-02-05T06:00:48.916Z,98.50
2023-02-05T06:01:52.656Z,98.40
2023-02-05T06:02:59.703Z,98.50
2023-02-05T06:04:04.315Z,98.60
2023-02-05T06:05:07.637Z,98.70
2023-02-05T06:06:13.420Z,98.90
2023-02-05T06:07:16.251Z,98.50
2023-02-05T06:08:26.092Z,98.50
2023-02-05T06:09:34.678Z,98.30
2023-02-05T06:10:38.076Z,98.70
2023-02-05T06:11:40.740Z,98.70
2023-02-05T06:12:44.220Z,98.80
2023-02-05T06:13:47.202Z,98.80
2023-02-05T06:14:55.160Z,98.70
2023-02-05T06:15:58.970Z,98.70
2023-02-05T06:17:01.715Z,99.30
2023-02-05T06:18:05.267Z,98.30
2023-02-05T06:19:10.091Z,98.30
2023-02-05T06:20:14.915Z,98.20
2023-02-05T06:21:17.686Z,98.10
2023-02-05T06:22:21.052Z,98.50
2023-02-05T06:23:25.191Z,98.70
2023-02-05T06:24:30.944Z,98.90
2023-02-05T06:25:34.060Z,98.90
2023-02-05T06:26:42.058Z,98.80
2023-02-05T06:27:48.906Z,98.80
2023-02-05T06:28:52.726Z,98.60
2023-02-05T06:29:55.421Z,98.70
2023-02-05T06:30:58.848Z,98.70
2023-02-05T06:32:01.346Z,98.50
2023-02-05T06:33:05.406Z,98.70
2023-02-05T06:34:08.183Z,98.60
2023-02-05T06:35:11.601Z,98.70
2023-02-05T06:36:13.985Z,98.80
2023-02-05T06:37:17.758Z,98.70
2023-02-05T06:38:20.243Z,99.00
2023-02-05T06:39:25.370Z,98.80
2023-02-05T06:40:28.470Z,98.60
2023-02-05T06:41:32.499Z,98.40
2023-02-05T06:42:35.571Z,98.70
2023-02-05T06:43:41.310Z,98.60
2023-02-05T06:44:44.463Z,98.60
2023-02-05T06:45:53.326Z,98.70
2023-02-05T06:46:56.347Z,98.80
2023-02-05T06:48:00.198Z,98.70
2023-02-05T06:49:02.716Z,99.00
2023-02-05T06:50:07.677Z,99.00
2023-02-05T06:51:10.196Z,98.60
2023-02-05T06:52:13.905Z,98.40
2023-02-05T06:53:16.360Z,98.40
2023-02-05T06:54:19.717Z,98.60
2023-02-05T06:55:25.998Z,98.40
2023-02-05T06:56:34.561Z,98.70
2023-02-05T06:57:36.969Z,98.80
2023-02-05T06:58:40.554Z,99.00
2023-02-05T06:59:43.283Z,99.10
2023-02-05T07:00:46.918Z,99.00
2023-02-05T07:01:49.659Z,98.90
2023-02-05T07:02:55.430Z,99.00
2023-02-05T07:03:57.951Z,98.90
2023-02-05T07:05:01.555Z,98.90
2023-02-05T07:06:06.291Z,99.00
2023-02-05T07:07:16.792Z,99.00
2023-02-05T07:08:19.535Z,98.40
2023-02-05T07:09:23.000Z,97.90
2023-02-05T07:10:26.860Z,98.10
2023-02-05T07:11:34.312Z,98.20
2023-02-05T07:12:42.101Z,98.50
2023-02-05T07:13:45.490Z,98.40
2023-02-05T07:14:48.270Z,98.10
2023-02-05T07:15:51.678Z,98.10
2023-02-05T07:16:54.416Z,98.30
2023-02-05T07:17:58.417Z,98.30
2023-02-05T07:19:00.969Z,98.10
2023-02-05T07:20:08.056Z,98.00
2023-02-05T07:21:15.985Z,98.20
2023-02-05T07:22:19.675Z,98.00
2023-02-05T07:23:22.644Z,98.10
2023-02-05T07:24:26.686Z,98.00
2023-02-05T07:25:36.522Z,97.90
2023-02-05T07:26:43.015Z,97.60
2023-02-05T07:27:50.058Z,97.60
2023-02-05T07:28:53.795Z,98.00
2023-02-05T07:29:56.139Z,98.20
2023-02-05T07:31:05.669Z,98.40
2023-02-05T07:32:08.230Z,98.50
2023-02-05T07:33:12.059Z,98.20
2023-02-05T07:34:15.147Z,98.10
2023-02-05T07:35:21.408Z,97.90
2023-02-05T07:36:23.831Z,98.10
2023-02-05T07:37:27.264Z,98.30
2023-02-05T07:38:29.810Z,98.60
2023-02-05T07:39:34.710Z,98.50
2023-02-05T07:40:39.016Z,98.50
2023-02-05T07:41:42.572Z,98.30
2023-02-05T07:42:53.342Z,98.20
2023-02-05T07:43:56.846Z,98.10
2023-02-05T07:45:09.564Z,98.10
2023-02-05T07:46:15.123Z,97.70
2023-02-05T07:47:19.614Z,97.60
2023-02-05T07:48:22.069Z,97.40
2023-02-05T07:49:30.956Z,97.50
2023-02-05T07:50:33.897Z,97.40
2023-02-05T07:51:37.702Z,97.30
2023-02-05T07:52:42.134Z,97.40
2023-02-05T07:53:46.730Z,97.30
2023-02-05T07:54:49.454Z,97.10
2023-02-05T07:55:54.761Z,97.40
2023-02-05T07:56:57.280Z,97.70
2023-02-05T07:58:00.827Z,97.60
2023-02-05T07:59:03.977Z,97.20
2023-02-05T08:00:09.919Z,97.00
2023-02-05T08:01:15.801Z,96.40
2023-02-05T08:02:23.462Z,96.50
2023-02-05T08:03:26.383Z,96.20
2023-02-05T08:04:30.137Z,96.00
2023-02-05T08:05:32.870Z,95.90
2023-02-05T08:06:36.773Z,96.10
2023-02-05T08:07:39.507Z,96.00
2023-02-05T08:08:43.073Z,95.80
2023-02-05T08:09:46.107Z,95.40
2023-02-05T08:10:49.755Z,95.90
2023-02-05T08:11:53.762Z,95.70
2023-02-05T08:12:58.577Z,96.00
2023-02-05T08:14:02.034Z,95.90
2023-02-05T08:15:10.464Z,95.70
2023-02-05T08:16:16.129Z,95.30
2023-02-05T08:17:19.997Z,95.60
2023-02-05T08:18:23.280Z,95.70
2023-02-05T08:19:26.994Z,95.80
2023-02-05T08:20:29.349Z,96.00
2023-02-05T08:21:38.833Z,95.60
2023-02-05T08:22:45.514Z,95.40
2023-02-05T08:23:48.647Z,95.60
2023-02-05T08:24:52.344Z,95.50
2023-02-05T08:25:55.737Z,95.40
2023-02-05T08:27:00.870Z,95.20
2023-02-05T08:28:03.730Z,95.10
2023-02-05T08:29:08.279Z,94.80
2023-02-05T08:30:17.951Z,94.80
2023-02-05T08:31:20.476Z,95.30
2023-02-05T08:32:24.583Z,95.30
2023-02-05T08:33:27.376Z,95.80
2023-02-05T08:34:31.081Z,95.50
2023-02-05T08:35:33.732Z,95.50
2023-02-05T08:36:37.561Z,95.70
2023-02-05T08:37:41.291Z,95.50
2023-02-05T08:38:43.796Z,94.60
2023-02-05T08:39:47.620Z,94.30
2023-02-05T08:40:50.175Z,93.80
2023-02-05T08:41:56.696Z,94.00
2023-02-05T08:43:06.653Z,93.90
2023-02-05T08:44:11.000Z,94.10
2023-02-05T08:45:14.302Z,94.50
2023-02-05T08:46:21.645Z,94.00
2023-02-05T08:47:24.558Z,93.90
2023-02-05T08:48:28.252Z,93.80
2023-02-05T08:49:31.986Z,94.40
2023-02-05T08:50:35.422Z,94.80
2023-02-05T08:51:38.917Z,94.40
2023-02-05T08:52:41.745Z,94.90
2023-02-05T08:53:47.930Z,94.20
2023-02-05T08:54:50.806Z,94.00
2023-02-05T08:55:57.102Z,94.60
2023-02-05T08:57:00.716Z,94.60
2023-02-05T08:58:04.669Z,94.50
2023-02-05T08:59:09.804Z,94.50
2023-02-05T09:00:16.239Z,94.60
2023-02-05T09:01:19.575Z,94.30
2023-02-05T09:02:23.824Z,94.50
2023-02-05T09:03:28.095Z,94.40
2023-02-05T09:04:32.522Z,94.20
2023-02-05T09:05:35.520Z,94.40
2023-02-05T09:06:39.401Z,94.60
2023-02-05T09:07:43.036Z,94.70
2023-02-05T09:08:46.957Z,94.80
2023-02-05T09:09:52.098Z,94.70
2023-02-05T09:10:56.217Z,94.70
2023-02-05T09:11:59.855Z,93.80
2023-02-05T09:13:02.669Z,93.20
2023-02-05T09:14:11.709Z,93.30
2023-02-05T09:15:20.557Z,93.40
2023-02-05T09:16:24.349Z,93.30
2023-02-05T09:17:27.478Z,93.60
2023-02-05T09:18:30.962Z,93.60
2023-02-05T09:19:35.281Z,94.00
2023-02-05T09:20:43.379Z,93.70
2023-02-05T09:21:47.128Z,93.90
2023-02-05T09:22:51.184Z,94.60
2023-02-05T09:23:55.949Z,94.30
2023-02-05T09:24:59.025Z,94.50
2023-02-05T09:26:02.991Z,94.70
2023-02-05T09:27:06.806Z,94.80
2023-02-05T09:28:14.771Z,94.80
2023-02-05T09:29:18.821Z,94.80
2023-02-05T09:30:22.411Z,93.80
2023-02-05T09:31:25.386Z,93.60
2023-02-05T09:32:29.188Z,93.50
2023-02-05T09:33:35.032Z,92.90
2023-02-05T09:34:38.443Z,93.40
2023-02-05T09:35:42.259Z,92.80
2023-02-05T09:36:45.907Z,93.30
2023-02-05T09:37:48.558Z,92.90
2023-02-05T09:39:12.025Z,92.10
2023-02-05T09:40:24.060Z,91.90
2023-02-05T09:41:35.905Z,91.20
2023-02-05T09:42:47.671Z,91.40
2023-02-05T09:43:58.802Z,91.80
2023-02-05T09:45:21.349Z,92.30
2023-02-05T09:46:35.738Z,92.60
2023-02-05T09:47:47.809Z,93.50
2023-02-05T09:49:00.968Z,93.60
2023-02-05T09:50:15.436Z,95.20
2023-02-05T09:51:22.010Z,95.00
2023-02-05T09:52:31.690Z,94.10
2023-02-05T09:53:41.555Z,94.60
2023-02-05T09:54:52.005Z,93.20
2023-02-05T09:55:55.399Z,93.60
2023-02-05T09:57:05.527Z,93.00
2023-02-05T09:58:16.458Z,92.90
2023-02-05T09:59:24.419Z,91.70
2023-02-05T10:00:33.732Z,90.60
2023-02-05T10:01:48.659Z,90.60
2023-02-05T10:03:02.073Z,90.80
2023-02-05T10:04:08.059Z,92.00
2023-02-05T10:05:17.782Z,92.10
2023-02-05T10:07:08.800Z,92.70
2023-02-05T10:08:23.951Z,92.20
2023-02-05T10:09:45.237Z,92.20
2023-02-05T10:10:55.062Z,92.50
2023-02-05T10:12:05.903Z,92.40
2023-02-05T10:13:32.369Z,92.00
2023-02-05T10:14:52.696Z,91.50
2023-02-05T10:16:23.424Z,91.60
2023-02-05T10:17:45.868Z,91.80
2023-02-05T10:19:09.599Z,92.60
2023-02-05T10:20:42.957Z,92.80
2023-02-05T10:22:11.468Z,92.90
2023-02-05T10:23:19.452Z,92.80
2023-02-05T10:24:55.602Z,92.80
2023-02-05T10:26:11.046Z,92.30
2023-02-05T10:27:21.623Z,91.70
2023-02-05T10:28:46.189Z,91.70
2023-02-05T10:30:02.816Z,91.50
2023-02-05T10:31:20.398Z,91.40
2023-02-05T10:32:26.671Z,91.60
2023-02-05T10:33:48.140Z,91.60
2023-02-05T10:35:00.083Z,91.90
2023-02-05T10:36:07.038Z,92.10
2023-02-05T10:37:18.760Z,92.30
2023-02-05T10:38:26.042Z,92.40
2023-02-05T10:39:32.244Z,92.20
2023-02-05T10:40:42.481Z,92.20
2023-02-05T10:41:51.542Z,92.40
2023-02-05T10:43:03.196Z,92.80
2023-02-05T10:44:16.503Z,92.60
2023-02-05T10:45:26.661Z,92.50
2023-02-05T10:46:36.409Z,93.20
2023-02-05T10:47:57.796Z,92.40
2023-02-05T10:49:09.124Z,92.40
2023-02-05T10:50:24.390Z,92.20
2023-02-05T10:51:38.397Z,91.70
2023-02-05T10:52:40.824Z,91.80
2023-02-05T10:53:45.423Z,91.70
2023-02-05T10:54:48.262Z,91.40
2023-02-05T10:55:52.272Z,91.30
2023-02-05T10:56:55.562Z,91.70
2023-02-05T10:57:58.988Z,92.10
2023-02-05T10:59:07.362Z,92.30
2023-02-05T11:00:18.575Z,91.80
2023-02-05T11:01:25.398Z,91.60
2023-02-05T11:02:37.331Z,91.80
2023-02-05T11:03:54.742Z,91.60
2023-02-05T11:05:04.156Z,91.70
2023-02-05T11:06:11.743Z,91.80
2023-02-05T11:07:29.579Z,92.20
2023-02-05T11:08:36.442Z,92.00
2023-02-05T11:09:40.237Z,91.10
2023-02-05T11:10:46.916Z,91.20
2023-02-05T11:11:53.897Z,90.70
2023-02-05T11:13:03.810Z,90.70
2023-02-05T11:14:09.573Z,91.00
2023-02-05T11:15:23.168Z,91.10
2023-02-05T11:16:38.653Z,91.10
2023-02-05T11:17:44.082Z,91.10
2023-02-05T11:18:58.813Z,91.40
2023-02-05T11:20:05.974Z,91.60
2023-02-05T11:21:10.035Z,91.40
2023-02-05T11:22:28.869Z,91.30
2023-02-05T11:23:39.782Z,91.70
2023-02-05T11:24:43.460Z,92.00
2023-02-05T11:25:56.646Z,92.40
2023-02-05T11:27:30.263Z,92.10
2023-02-05T11:28:36.871Z,91.80
2023-02-05T11:29:39.617Z,92.00
2023-02-05T11:30:52.100Z,92.00
2023-02-05T11:31:56.500Z,91.50
2023-02-05T11:33:20.478Z,91.70
2023-02-05T11:34:24.459Z,92.40
2023-02-05T11:35:32.210Z,92.50
2023-02-05T11:36:39.504Z,92.00
2023-02-05T11:37:42.493Z,92.00
2023-02-05T11:38:52.755Z,92.40
2023-02-05T11:39:56.624Z,92.30
2023-02-05T11:41:03.702Z,92.10
2023-02-05T11:42:18.856Z,92.70
2023-02-05T11:43:28.556Z,92.80
2023-02-05T11:44:36.014Z,92.90
2023-02-05T11:45:41.076Z,92.90
2023-02-05T11:46:50.136Z,92.90
2023-02-05T11:48:56.213Z,92.90
2023-02-05T11:50:11.241Z,92.10
2023-02-05T11:51:51.790Z,92.20
2023-02-05T11:53:16.293Z,92.80
2023-02-05T11:54:33.554Z,92.40
2023-02-05T11:55:52.228Z,92.20
2023-02-05T11:57:09.979Z,92.10
2023-02-05T11:58:36.669Z,91.90
2023-02-05T11:59:44.858Z,92.50
2023-02-05T12:01:08.777Z,92.00
2023-02-05T12:02:54.901Z,92.10
2023-02-05T12:05:43.523Z,92.70
2023-02-05T12:07:04.060Z,93.00
2023-02-05T12:08:21.419Z,93.10
2023-02-05T12:11:15.678Z,92.70
2023-02-05T12:13:11.943Z,93.00
2023-02-05T12:14:31.865Z,92.70
2023-02-05T12:15:46.462Z,94.90
2023-02-05T12:17:19.880Z,93.80
2023-02-05T12:19:10.093Z,92.50
2023-02-05T12:20:45.912Z,92.80
2023-02-05T12:22:07.623Z,92.40
2023-02-05T12:23:52.137Z,92.10
2023-02-05T12:25:34.850Z,92.00
2023-02-05T12:27:00.001Z,92.40
2023-02-05T12:30:17.667Z,91.10
2023-02-05T12:31:41.783Z,91.50
2023-02-05T12:33:01.164Z,91.20
2023-02-05T12:34:27.827Z,90.90
2023-02-05T12:36:13.694Z,91.00
2023-02-05T12:37:39.756Z,91.20
2023-02-05T12:39:23.135Z,90.50
2023-02-05T12:40:50.629Z,90.20
2023-02-05T12:42:15.183Z,91.20
2023-02-05T12:44:07.045Z,91.70
2023-02-05T12:45:41.800Z,90.80
2023-02-05T12:47:34.401Z,91.80
2023-02-05T12:49:05.772Z,92.20
2023-02-05T12:50:32.335Z,90.20
2023-02-05T12:52:06.722Z,90.40
2023-02-05T12:55:27.848Z,91.10
2023-02-05T12:57:15.019Z,91.30
2023-02-05T12:58:49.881Z,90.60
2023-02-05T13:00:18.613Z,90.10
2023-02-05T13:01:44.606Z,90.90
2023-02-05T13:03:08.466Z,91.30
2023-02-05T13:04:31.754Z,91.20
2023-02-05T13:05:57.003Z,91.60
2023-02-05T13:07:12.518Z,91.00
2023-02-05T13:08:45.384Z,90.40
2023-02-05T13:10:06.758Z,90.30
2023-02-05T13:11:24.033Z,89.30
2023-02-05T13:12:50.407Z,89.20
2023-02-05T13:14:04.352Z,89.30
2023-02-05T13:15:28.649Z,90.10
2023-02-05T13:16:46.479Z,88.40
2023-02-05T13:18:12.776Z,89.70
2023-02-05T13:19:26.992Z,88.70
2023-02-05T13:21:11.763Z,87.00
2023-02-05T13:22:57.229Z,87.10
2023-02-05T13:24:33.937Z,88.80
2023-02-05T13:26:07.915Z,88.90
2023-02-05T13:27:53.145Z,91.80
2023-02-05T13:29:27.699Z,91.20
2023-02-05T13:31:03.183Z,91.80
2023-02-05T13:32:17.538Z,90.50
2023-02-05T13:33:24.845Z,89.10
2023-02-05T13:34:34.723Z,92.50
2023-02-05T13:35:53.291Z,97.80
2023-02-05T13:38:35.745Z,98.60
2023-02-05T13:39:40.364Z,99.90
2023-02-05T13:41:24.930Z,94.90
2023-02-05T13:43:21.526Z,93.50
2023-02-05T13:45:34.812Z,89.60
2023-02-05T13:47:34.144Z,98.80
2023-02-05T13:49:20.806Z,86.50
2023-02-05T13:51:14.307Z,92.60
2023-02-05T13:54:39.000Z,90.50
2023-02-05T13:56:42.492Z,80.30
2023-02-05T13:58:20.621Z,72.70
2023-02-05T13:59:36.049Z,71.40
2023-02-05T14:00:42.950Z,71.30
2023-02-05T14:01:53.539Z,72.00
2023-02-05T14:02:57.652Z,74.90
2023-02-05T14:04:05.680Z,74.20
2023-02-05T14:05:10.041Z,73.00
2023-02-05T14:06:23.918Z,73.10
2023-02-05T14:07:31.159Z,73.50
2023-02-05T14:08:40.774Z,72.40
2023-02-05T14:09:56.512Z,72.60
2023-02-05T14:13:45.820Z,75.80
2023-02-05T14:15:25.336Z,74.70
2023-02-05T14:16:37.515Z,77.10
2023-02-05T14:17:56.822Z,78.10
2023-02-05T14:19:52.325Z,77.00
2023-02-05T14:20:54.862Z,78.40
2023-02-05T14:22:26.032Z,77.40
2023-02-05T14:24:03.055Z,78.40
2023-02-05T14:25:24.919Z,80.80
2023-02-05T14:26:52.296Z,80.10
2023-02-05T14:27:56.937Z,80.20
2023-02-05T14:29:00.823Z,80.20
2023-02-05T14:30:33.116Z,79.90
2023-02-05T14:31:53.341Z,79.50
2023-02-05T14:33:01.193Z,78.50
2023-02-05T14:34:52.423Z,80.10
2023-02-05T14:36:15.144Z,80.50
2023-02-05T14:37:32.034Z,80.50
2023-02-05T14:38:38.518Z,80.90
2023-02-05T14:39:41.236Z,81.50
2023-02-05T14:40:45.220Z,82.20
2023-02-05T14:41:59.037Z,82.50
2023-02-05T14:43:14.734Z,82.90
2023-02-05T14:44:21.620Z,82.10
2023-02-05T14:45:28.569Z,84.00
2023-02-05T14:46:37.666Z,84.80
2023-02-05T14:47:46.136Z,84.70
2023-02-05T14:48:49.543Z,81.70
2023-02-05T14:50:00.184Z,83.30
2023-02-05T14:51:08.065Z,82.40
2023-02-05T14:52:29.863Z,84.20
2023-02-05T14:53:35.891Z,84.90
2023-02-05T14:54:48.654Z,85.20
2023-02-05T14:55:56.657Z,85.30
2023-02-05T14:57:18.779Z,86.30
2023-02-05T14:58:28.117Z,86.90
2023-02-05T14:59:43.862Z,86.40
2023-02-05T15:00:51.248Z,87.60
2023-02-05T15:02:01.010Z,87.00
2023-02-05T15:03:35.878Z,86.30
2023-02-05T15:04:52.642Z,88.10
2023-02-05T15:06:03.405Z,89.30
2023-02-05T15:07:14.960Z,89.00
2023-02-05T15:08:29.877Z,87.60
2023-02-05T15:09:44.226Z,86.20
2023-02-05T15:10:54.989Z,86.50
2023-02-05T15:12:25.443Z,87.50
2023-02-05T15:13:29.638Z,90.10
2023-02-05T15:14:41.748Z,90.10
2023-02-05T15:16:17.276Z,87.90
2023-02-05T15:17:51.782Z,88.10
2023-02-05T15:19:00.562Z,90.00
2023-02-05T15:20:32.537Z,89.70
2023-02-05T15:21:44.955Z,90.80
2023-02-05T15:22:55.305Z,94.80
2023-02-05T15:24:10.896Z,99.90
2023-02-05T15:25:27.887Z,99.90
2023-02-05T15:26:43.020Z,96.10
2023-02-05T15:27:54.414Z,91.90
2023-02-05T15:29:03.612Z,91.80
2023-02-05T15:30:14.941Z,91.90
2023-02-05T15:31:27.895Z,90.50
2023-02-05T15:32:41.052Z,90.90
2023-02-05T15:33:55.714Z,87.30
2023-02-05T15:35:06.646Z,86.60
2023-02-05T15:36:25.961Z,84.70
2023-02-05T15:37:37.663Z,85.70
2023-02-05T15:38:49.686Z,82.90
2023-02-05T15:39:57.283Z,83.10
2023-02-05T15:41:13.658Z,84.00
2023-02-05T15:42:21.167Z,84.00
2023-02-05T15:43:26.282Z,85.60
2023-02-05T15:44:35.181Z,86.70
2023-02-05T15:45:50.830Z,89.40
2023-02-05T15:46:56.369Z,84.40
2023-02-05T15:48:06.244Z,83.90
2023-02-05T15:49:10.096Z,84.00
2023-02-05T15:50:22.683Z,83.80
2023-02-05T15:51:31.468Z,82.90
2023-02-05T15:52:36.073Z,82.70
2023-02-05T15:53:43.130Z,85.80
2023-02-05T15:54:46.621Z,85.70
2023-02-05T15:55:53.501Z,83.80
2023-02-05T15:56:59.002Z,85.40
2023-02-05T15:59:34.636Z,86.20
2023-02-05T16:00:46.876Z,83.50
2023-02-05T16:01:59.431Z,94.30
2023-02-05T16:03:04.560Z,91.40
2023-02-05T16:04:24.270Z,87.50
2023-02-05T16:05:30.833Z,90.20
2023-02-05T16:06:42.685Z,85.10
2023-02-05T16:07:55.543Z,83.40
2023-02-05T16:08:59.475Z,82.80